createdAt,value
2022-10-17T00:04:27.092Z,12.1
2022-10-17T00:09:29.151Z,11.8
2022-10-17T00:14:31.140Z,11.1
2022-10-17T00:19:33.081Z,11.9
2022-10-17T00:24:35.068Z,11.8
2022-10-17T00:29:37.159Z,13.1
2022-10-17T00:34:39.159Z,14.8
2022-10-17T00:39:41.484Z,14
2022-10-17T00:44:43.513Z,11.5
2022-10-17T00:49:45.373Z,11.4
2022-10-17T00:54:47.482Z,10.9
2022-10-17T00:59:49.595Z,13.1
2022-10-17T01:04:52.001Z,11.2
2022-10-17T01:09:54.145Z,12.5
2022-10-17T01:14:56.040Z,12.6
2022-10-17T01:19:58.044Z,11.9
2022-10-17T01:25:00.249Z,11.8
2022-10-17T01:30:02.521Z,12.5
2022-10-17T01:35:04.512Z,10.6
2022-10-17T01:40:06.497Z,12.3
2022-10-17T01:45:08.636Z,11.6
2022-10-17T01:50:10.767Z,13.8
2022-10-17T01:55:12.759Z,10.9
2022-10-17T02:00:14.690Z,10.6
2022-10-17T02:05:16.581Z,13.2
2022-10-17T02:10:18.488Z,10.2
2022-10-17T02:15:20.410Z,11
2022-10-17T02:20:22.395Z,10.6
2022-10-17T02:25:24.347Z,11.7
2022-10-17T02:30:26.442Z,12.3
2022-10-17T02:35:28.758Z,11.6
2022-10-17T02:40:30.961Z,12.4
2022-10-17T02:45:33.191Z,13.2
2022-10-17T02:50:35.372Z,12.6
2022-10-17T02:55:37.345Z,12.3
2022-10-17T03:00:39.311Z,11.6
2022-10-17T03:05:41.684Z,12.5
2022-10-17T03:10:43.754Z,11.4
2022-10-17T03:15:45.895Z,11.7
2022-10-17T03:20:48.522Z,10
2022-10-17T03:25:50.441Z,12
2022-10-17T03:30:53.192Z,11.7
2022-10-17T03:35:55.392Z,13.2
2022-10-17T03:40:57.296Z,13.3
2022-10-17T03:45:59.647Z,11
2022-10-17T03:51:02.025Z,15.2
2022-10-17T03:56:03.981Z,12.8
2022-10-17T04:01:06.028Z,12.3
2022-10-17T04:06:08.471Z,12.9
2022-10-17T04:11:10.569Z,13.8
2022-10-17T04:16:12.538Z,12.9
2022-10-17T04:21:14.493Z,13.3
2022-10-17T04:26:16.388Z,12.5
2022-10-17T04:31:18.553Z,13.4
2022-10-17T04:36:20.684Z,19.9
2022-10-17T04:41:22.736Z,19.5
2022-10-17T04:46:24.884Z,16.1
2022-10-17T04:51:27.008Z,16.1
2022-10-17T04:56:28.940Z,17
2022-10-17T05:01:31.218Z,14.5
2022-10-17T05:06:33.353Z,15.5
2022-10-17T05:11:35.670Z,17.7
2022-10-17T05:16:37.899Z,25.6
2022-10-17T05:21:39.870Z,23.5
2022-10-17T05:26:42.141Z,16.6
2022-10-17T05:31:44.165Z,14.3
2022-10-17T05:36:46.266Z,15.3
2022-10-17T05:41:48.365Z,12.6
2022-10-17T05:46:50.424Z,16.1
2022-10-17T05:51:52.393Z,17.6
2022-10-17T05:56:55.550Z,14.6
2022-10-17T06:01:57.499Z,13.6
2022-10-17T06:06:59.603Z,13.9
2022-10-17T06:12:01.574Z,30.3
2022-10-17T06:17:02.068Z,11.8
2022-10-17T06:22:04.162Z,12.5
2022-10-17T06:27:10.815Z,13.4
2022-10-17T06:32:14.992Z,11.1
2022-10-17T06:37:17.518Z,11.9
2022-10-17T06:42:19.696Z,9.8
2022-10-17T06:47:27.594Z,9.7
2022-10-17T06:52:32.208Z,9.6
2022-10-17T06:57:35.058Z,8.8
2022-10-17T07:02:37.575Z,8.7
2022-10-17T07:07:41.414Z,17.6
2022-10-17T07:12:47.234Z,9.8
2022-10-17T07:17:49.418Z,9.3
2022-10-17T07:22:51.589Z,8.6
2022-10-17T07:27:53.584Z,7.6
2022-10-17T07:32:55.547Z,12.8
2022-10-17T07:37:57.901Z,8.1
2022-10-17T07:42:59.999Z,8.1
2022-10-17T07:48:01.991Z,7.5
2022-10-17T07:53:03.979Z,6.7
2022-10-17T07:58:06.083Z,7.9
2022-10-17T08:03:08.161Z,7.9
2022-10-17T08:08:10.103Z,7.3
2022-10-17T08:13:12.217Z,7.8
2022-10-17T08:18:14.652Z,6.9
2022-10-17T08:23:32.152Z,6.8
2022-10-17T08:28:27.425Z,6.1
2022-10-17T08:33:36.571Z,7.4
2022-10-17T08:38:42.896Z,5.9
2022-10-17T08:43:43.323Z,5.3
2022-10-17T08:48:50.455Z,6.5
2022-10-17T08:53:48.139Z,5.6
2022-10-17T08:58:55.731Z,6.7
2022-10-17T09:03:51.366Z,6
2022-10-17T09:08:54.160Z,6.6
2022-10-17T09:13:57.851Z,6.3
2022-10-17T09:19:05.570Z,7.2
2022-10-17T09:24:15.361Z,7.5
2022-10-17T09:29:09.247Z,8.9
2022-10-17T09:34:10.732Z,6.1
2022-10-17T09:39:16.064Z,5.5
2022-10-17T09:44:18.379Z,7.2
2022-10-17T09:49:22.707Z,8.8
2022-10-17T09:54:25.330Z,6.1
2022-10-17T09:59:27.850Z,8.1
2022-10-17T10:04:41.502Z,5.7
2022-10-17T10:09:39.517Z,6.6
2022-10-17T10:14:47.278Z,6.4
2022-10-17T10:19:57.943Z,10
2022-10-17T10:25:00.962Z,5.4
2022-10-17T10:30:09.716Z,5.8
2022-10-17T10:35:10.787Z,6.8
2022-10-17T10:40:14.026Z,6
2022-10-17T10:45:29.187Z,7.3
2022-10-17T10:50:22.107Z,8.9
2022-10-17T10:55:24.274Z,8
2022-10-17T11:00:29.388Z,8.1
2022-10-17T11:05:34.624Z,6
2022-10-17T11:10:39.547Z,8.7
2022-10-17T11:15:43.362Z,5.4
2022-10-17T11:20:47.083Z,7.7
2022-10-17T11:25:51.569Z,5.9
2022-10-17T11:31:01.369Z,4.5
2022-10-17T11:36:04.335Z,4.4
2022-10-17T11:41:16.319Z,10.1
2022-10-17T11:46:13.330Z,7
2022-10-17T11:56:16.769Z,6.7
2022-10-17T12:01:34.835Z,5.5
2022-10-17T12:06:29.424Z,5.6
2022-10-17T12:11:34.445Z,7.2
2022-10-17T12:16:38.723Z,5.4
2022-10-17T12:21:42.844Z,7.2
2022-10-17T12:26:46.166Z,8.5
2022-10-17T12:31:48.996Z,9.6
2022-10-17T12:36:51.175Z,8.3
2022-10-17T12:41:53.713Z,6.7
2022-10-17T12:46:56.326Z,5.2
2022-10-17T12:51:59.693Z,8
2022-10-17T12:57:01.695Z,7.4
2022-10-17T13:07:13.088Z,5.4
2022-10-17T13:12:18.030Z,5.1
2022-10-17T13:17:23.029Z,6.1
2022-10-17T13:22:28.111Z,5.7
2022-10-17T13:27:35.628Z,6.8
2022-10-17T13:32:39.958Z,5.8
2022-10-17T13:37:50.316Z,5.9
2022-10-17T13:42:47.569Z,4
2022-10-17T13:47:54.887Z,4.4
2022-10-17T13:53:00.172Z,5.9
2022-10-17T13:58:06.199Z,6.5
2022-10-17T14:03:10.305Z,5.2
2022-10-17T14:08:19.130Z,5
2022-10-17T14:13:23.017Z,6.2
2022-10-17T14:18:25.281Z,4.9
2022-10-17T14:23:41.586Z,6.4
2022-10-17T14:28:31.723Z,6.3
2022-10-17T14:33:34.632Z,5.4
2022-10-17T14:43:47.806Z,4.5
2022-10-17T14:48:47.890Z,4.6
2022-10-17T14:53:51.650Z,4.3
2022-10-17T14:58:53.784Z,11.1
2022-10-17T15:03:55.675Z,6
2022-10-17T15:08:58.154Z,5.6
2022-10-17T15:14:00.376Z,5.2
2022-10-17T15:19:02.402Z,5.9
2022-10-17T15:24:04.523Z,6.3
2022-10-17T15:29:06.546Z,5.1
2022-10-17T15:34:08.979Z,5.7
2022-10-17T15:39:11.211Z,6.7
2022-10-17T15:44:13.605Z,6.6
2022-10-17T15:49:15.555Z,8.7
2022-10-17T15:54:17.757Z,6.1
2022-10-17T15:59:20.019Z,7.5
2022-10-17T16:04:21.963Z,8.7
2022-10-17T16:09:24.137Z,9.7
2022-10-17T16:14:26.371Z,7.3
2022-10-17T16:19:28.414Z,7.3
2022-10-17T16:24:30.444Z,9.2
2022-10-17T16:29:32.366Z,12.1
2022-10-17T16:34:34.249Z,14.4
2022-10-17T16:39:36.639Z,12.6
2022-10-17T16:44:39.056Z,19.5
2022-10-17T16:49:42.893Z,14.3
2022-10-17T16:54:47.690Z,15.1
2022-10-17T16:59:49.925Z,15.4
2022-10-17T17:04:51.938Z,15.3
2022-10-17T17:09:54.156Z,15.5
2022-10-17T17:14:56.303Z,17.1
2022-10-17T17:19:58.245Z,14.6
2022-10-17T17:25:00.494Z,22.6
2022-10-17T17:30:02.495Z,17.3
2022-10-17T17:35:04.595Z,18.8
2022-10-17T17:40:06.595Z,19.1
2022-10-17T17:45:08.707Z,17.3
2022-10-17T17:50:10.621Z,14.2
2022-10-17T17:55:13.023Z,20
2022-10-17T18:00:15.292Z,12.3
2022-10-17T18:05:17.265Z,13
2022-10-17T18:10:19.364Z,13.2
2022-10-17T18:15:21.368Z,14.3
2022-10-17T18:20:23.379Z,12.3
2022-10-17T18:25:25.889Z,11.8
2022-10-17T18:30:28.891Z,10.9
2022-10-17T18:35:35.746Z,27.2
2022-10-17T18:40:41.666Z,26.2
2022-10-17T18:45:41.613Z,23.8
2022-10-17T18:50:43.581Z,30.5
2022-10-17T19:00:50.606Z,32.8
2022-10-17T19:05:52.896Z,30.7
2022-10-17T19:11:01.543Z,27.2
2022-10-17T19:16:03.539Z,27.4
2022-10-17T19:21:05.553Z,27.7
2022-10-17T19:26:07.628Z,22.3
2022-10-17T19:31:12.010Z,17.5
2022-10-17T19:36:16.160Z,22.8
2022-10-17T19:41:18.595Z,21.1
2022-10-17T19:46:20.878Z,17.7
2022-10-17T19:51:22.891Z,17.3
2022-10-17T19:56:25.138Z,17.9
2022-10-17T20:01:27.269Z,16.1
2022-10-17T20:06:29.651Z,30.5
2022-10-17T20:11:31.595Z,23.4
2022-10-17T20:16:33.550Z,34.9
2022-10-17T20:21:35.522Z,29.4
2022-10-17T20:26:38.909Z,29.7
2022-10-17T20:31:41.722Z,29
2022-10-17T20:36:43.673Z,22.5
2022-10-17T20:41:45.694Z,23.2
2022-10-17T20:47:00.983Z,21.5
2022-10-17T20:51:55.567Z,31.5
2022-10-17T20:56:58.728Z,37.5
2022-10-17T21:02:06.461Z,45.5
2022-10-17T21:07:08.681Z,33.8
2022-10-17T21:12:10.723Z,31.7
2022-10-17T21:17:12.710Z,32.7
2022-10-17T21:22:14.606Z,31.4
2022-10-17T21:27:16.484Z,27.1
2022-10-17T21:32:25.103Z,27.8
2022-10-17T21:37:23.271Z,28.6
2022-10-17T21:42:25.186Z,20.1
2022-10-17T21:47:27.709Z,20.4
2022-10-17T21:52:30.125Z,22.1
2022-10-17T21:57:33.394Z,16.8
2022-10-17T22:02:35.311Z,21.6
2022-10-17T22:07:37.324Z,21.6
2022-10-17T22:12:39.451Z,25.8
2022-10-17T22:17:41.447Z,24.2
2022-10-17T22:22:43.408Z,20.6
2022-10-17T22:27:45.444Z,24.7
2022-10-17T22:32:47.426Z,27.7
2022-10-17T22:37:49.392Z,27
2022-10-17T22:42:51.610Z,28.9
2022-10-17T22:47:53.933Z,27.1
2022-10-17T22:52:55.883Z,23.4
2022-10-17T22:57:58.092Z,31.8
2022-10-17T23:03:00.224Z,34.9
2022-10-17T23:08:02.281Z,29.1
2022-10-17T23:13:04.435Z,32.5
2022-10-17T23:18:06.354Z,26
2022-10-17T23:23:08.286Z,27.3
2022-10-17T23:28:10.366Z,29.3
2022-10-17T23:33:12.400Z,29.7
2022-10-17T23:38:14.355Z,28.5
2022-10-17T23:43:16.558Z,28.8
2022-10-17T23:48:18.906Z,26.8
2022-10-17T23:53:21.023Z,28.1
2022-10-17T23:58:23.108Z,24.9
